Nakhchivan — 9HHK8 — position and weather

sailwx.info

Track history (hours):
 
Tides and Currents Weather Stations Pressure Air Temp Water Temp Dewpoint Dewpoint Depression Visibility Wind Speed Wind Dir Waves Ship Positions

Nakhchivan

Last reported at 2016-Jul-31 02:32 UTC. Time now 2016-Jul-31 03:35 UTC.
Position N 40°27' E 001°07'.

Length 139 m; draft 4.7 m.

Type: Cargo ship. MMSI: 215983000.

Date/timePositionNaut miles runAvg speedWind from/ knotsBaromVisibWave heightAir tempDewpointWater temp
2016-Jul-31 02:32N 40°27' E 001°07'7 7.3
2016-Jul-31 01:33N 40°20' E 001°06'8 7.2
2016-Jul-31 00:30N 40°13' E 001°04'13 6.8
2016-Jul-30 22:32N 39°59' E 001°02'37 7.2
2016-Jul-30 17:23N 39°24' E 000°50'43 7.2
2016-Jul-30 11:23N 38°44' E 000°28'7 7.8
2016-Jul-30 10:33N 38°38' E 000°25'8 7.7
2016-Jul-30 09:33N 38°32' E 000°19'7 7.6
2016-Jul-30 08:34N 38°26' E 000°14'8 7.5
2016-Jul-30 07:33N 38°20' E 000°08'8 7.6
2016-Jul-30 06:33N 38°13' E 000°02'7 7.5
2016-Jul-30 05:33N 38°07' W 000°02'31 7.2
2016-Jul-30 01:19N 37°41' W 000°24'5 7.0
2016-Jul-30 00:33N 37°37' W 000°27'15 7.0
2016-Jul-29 22:24N 37°26' W 000°41'6 6.8
2016-Jul-29 21:33N 37°22' W 000°46'7 6.8
2016-Jul-29 20:27N 37°17' W 000°53'225 7.1
2016-Jul-28 12:34N 35°58' W 005°15'4 4.4
2016-Jul-28 11:33N 35°54' W 005°18'0 0.0
2016-Jul-28 10:33N 35°54' W 005°18'0 0.0
2016-Jul-28 09:33N 35°54' W 005°18'0 0.1
2016-Jul-28 08:34N 35°54' W 005°19'2 1.5
2016-Jul-28 07:33N 35°55' W 005°19'2 1.6
2016-Jul-28 06:33N 35°57' W 005°19'7 6.8
2016-Jul-28 05:32N 35°57' W 005°28'220 7.5
2016-Jul-27 00:03N 37°20' W 009°42'22 8.7
2016-Jul-26 21:33N 37°42' W 009°49'18 8.9
2016-Jul-26 19:32N 37°59' W 009°54'9 8.8
2016-Jul-26 18:33N 38°07' W 009°56'10 9.1
2016-Jul-26 17:25N 38°17' W 009°59'17 9.1
2016-Jul-26 15:33N 38°34' W 010°04'  
2016-Jul-23 10:33N 49°07' W 005°15'58 8.0
2016-Jul-23 03:15N 49°36' W 003°58'710.5
2016-Jul-23 02:33N 49°40' W 003°48'1311.0
2016-Jul-23 01:25N 49°46' W 003°31'910.4
2016-Jul-23 00:33N 49°50' W 003°18'9 9.2
2016-Jul-22 23:33N 49°54' W 003°06'8 7.9
2016-Jul-22 22:33N 49°58' W 002°55'10 6.9
2016-Jul-22 21:06N 50°00' W 002°40'55 9.4
2016-Jul-22 15:17N 50°02' W 001°15'911.9
2016-Jul-22 14:33N 49°57' W 001°04'1010.2
2016-Jul-22 13:33N 49°50' W 000°52'4 3.1
2016-Jul-22 12:20N 49°48' W 000°47'6 8.3
2016-Jul-22 11:33N 49°45' W 000°39'8 7.9
2016-Jul-22 10:33N 49°41' W 000°28'4 4.1
2016-Jul-22 09:33N 49°38' W 000°24'8 7.6
2016-Jul-22 08:33N 49°33' W 000°15'8 8.0
2016-Jul-22 07:33N 49°29' W 000°04'20 9.9
2016-Jul-22 05:33N 49°28' E 000°26'9 9.0
2016-Jul-22 04:33N 49°28' E 000°40'  
Track history (hours):
 
Tides and Currents Weather Stations Pressure Air Temp Water Temp Dewpoint Dewpoint Depression Visibility Wind Speed Wind Dir Waves Ship Positions

Nakhchivan

Last reported at 2016-Jul-31 02:32 UTC. Time now 2016-Jul-31 03:35 UTC.
Position N 40°27' E 001°07'.

Length 139 m; draft 4.7 m.

Type: Cargo ship. MMSI: 215983000.

Date/timePositionNaut miles runAvg speedWind from/ knotsBaromVisibWave heightAir tempDewpointWater temp
2016-Jul-31 02:32N 40°27' E 001°07'7 7.3
2016-Jul-31 01:33N 40°20' E 001°06'8 7.2
2016-Jul-31 00:30N 40°13' E 001°04'13 6.8
2016-Jul-30 22:32N 39°59' E 001°02'37 7.2
2016-Jul-30 17:23N 39°24' E 000°50'43 7.2
2016-Jul-30 11:23N 38°44' E 000°28'7 7.8
2016-Jul-30 10:33N 38°38' E 000°25'8 7.7
2016-Jul-30 09:33N 38°32' E 000°19'7 7.6
2016-Jul-30 08:34N 38°26' E 000°14'8 7.5
2016-Jul-30 07:33N 38°20' E 000°08'8 7.6
2016-Jul-30 06:33N 38°13' E 000°02'7 7.5
2016-Jul-30 05:33N 38°07' W 000°02'31 7.2
2016-Jul-30 01:19N 37°41' W 000°24'5 7.0
2016-Jul-30 00:33N 37°37' W 000°27'15 7.0
2016-Jul-29 22:24N 37°26' W 000°41'6 6.8
2016-Jul-29 21:33N 37°22' W 000°46'7 6.8
2016-Jul-29 20:27N 37°17' W 000°53'225 7.1
2016-Jul-28 12:34N 35°58' W 005°15'4 4.4
2016-Jul-28 11:33N 35°54' W 005°18'0 0.0
2016-Jul-28 10:33N 35°54' W 005°18'0 0.0
2016-Jul-28 09:33N 35°54' W 005°18'0 0.1
2016-Jul-28 08:34N 35°54' W 005°19'2 1.5
2016-Jul-28 07:33N 35°55' W 005°19'2 1.6
2016-Jul-28 06:33N 35°57' W 005°19'7 6.8
2016-Jul-28 05:32N 35°57' W 005°28'220 7.5
2016-Jul-27 00:03N 37°20' W 009°42'22 8.7
2016-Jul-26 21:33N 37°42' W 009°49'18 8.9
2016-Jul-26 19:32N 37°59' W 009°54'9 8.8
2016-Jul-26 18:33N 38°07' W 009°56'10 9.1
2016-Jul-26 17:25N 38°17' W 009°59'17 9.1
2016-Jul-26 15:33N 38°34' W 010°04'  
2016-Jul-23 10:33N 49°07' W 005°15'58 8.0
2016-Jul-23 03:15N 49°36' W 003°58'710.5
2016-Jul-23 02:33N 49°40' W 003°48'1311.0
2016-Jul-23 01:25N 49°46' W 003°31'910.4
2016-Jul-23 00:33N 49°50' W 003°18'9 9.2
2016-Jul-22 23:33N 49°54' W 003°06'8 7.9
2016-Jul-22 22:33N 49°58' W 002°55'10 6.9
2016-Jul-22 21:06N 50°00' W 002°40'55 9.4
2016-Jul-22 15:17N 50°02' W 001°15'911.9
2016-Jul-22 14:33N 49°57' W 001°04'1010.2
2016-Jul-22 13:33N 49°50' W 000°52'4 3.1
2016-Jul-22 12:20N 49°48' W 000°47'6 8.3
2016-Jul-22 11:33N 49°45' W 000°39'8 7.9
2016-Jul-22 10:33N 49°41' W 000°28'4 4.1
2016-Jul-22 09:33N 49°38' W 000°24'8 7.6
2016-Jul-22 08:33N 49°33' W 000°15'8 8.0
2016-Jul-22 07:33N 49°29' W 000°04'20 9.9
2016-Jul-22 05:33N 49°28' E 000°26'9 9.0
2016-Jul-22 04:33N 49°28' E 000°40'  

Dump ship's entire track history